createdAt,value
2023-03-27T00:00:25.249Z,12.02
2023-03-27T00:05:47.124Z,12.82
2023-03-27T00:11:09.540Z,12.27
2023-03-27T00:16:31.469Z,12.10
2023-03-27T00:21:53.345Z,13.95
2023-03-27T00:27:15.318Z,14.63
2023-03-27T00:32:37.247Z,13.98
2023-03-27T00:37:59.121Z,12.75
2023-03-27T00:43:23.665Z,12.93
2023-03-27T00:48:50.092Z,13.15
2023-03-27T00:54:15.384Z,14.35
2023-03-27T00:59:40.236Z,14.50
2023-03-27T01:05:02.384Z,16.08
2023-03-27T01:10:47.980Z,16.77
2023-03-27T01:16:52.274Z,14.60
2023-03-27T01:22:38.939Z,15.45
2023-03-27T01:28:31.049Z,19.90
2023-03-27T01:34:30.655Z,18.35
2023-03-27T01:40:00.370Z,17.52
2023-03-27T01:45:51.400Z,16.42
2023-03-27T01:51:28.127Z,17.73
2023-03-27T01:57:00.556Z,15.77
2023-03-27T02:02:29.488Z,18.25
2023-03-27T02:08:01.556Z,15.13
2023-03-27T02:13:29.214Z,13.75
2023-03-27T02:18:59.003Z,16.35
2023-03-27T02:24:20.846Z,17.40
2023-03-27T02:30:00.300Z,16.38
2023-03-27T02:35:48.746Z,14.23
2023-03-27T02:41:37.046Z,15.02
2023-03-27T02:47:01.875Z,16.45
2023-03-27T02:52:28.770Z,14.40
2023-03-27T02:57:57.846Z,15.82
2023-03-27T03:03:28.508Z,18.33
2023-03-27T03:08:50.559Z,18.02
2023-03-27T03:14:12.867Z,17.60
2023-03-27T03:19:34.719Z,20.00
2023-03-27T03:24:56.562Z,16.42
2023-03-27T03:30:18.476Z,19.65
2023-03-27T03:35:40.929Z,18.33
2023-03-27T03:41:02.807Z,19.73
2023-03-27T03:46:24.710Z,20.95
2023-03-27T03:51:46.665Z,15.38
2023-03-27T03:57:08.599Z,31.80
2023-03-27T04:02:30.892Z,42.85
2023-03-27T04:07:52.961Z,38.33
2023-03-27T04:13:14.898Z,30.75
2023-03-27T04:18:36.794Z,23.98
2023-03-27T04:23:58.957Z,25.08
2023-03-27T04:29:20.813Z,19.45
2023-03-27T04:34:42.675Z,19.00
2023-03-27T04:40:04.884Z,19.50
2023-03-27T04:45:26.842Z,20.73
2023-03-27T04:50:49.394Z,18.40
2023-03-27T04:56:11.788Z,20.75
2023-03-27T05:01:33.943Z,20.77
2023-03-27T05:06:57.535Z,24.73
2023-03-27T05:12:20.664Z,25.35
2023-03-27T05:17:44.465Z,26.02
2023-03-27T05:23:06.322Z,18.13
2023-03-27T05:28:29.595Z,19.85
2023-03-27T05:33:52.322Z,16.45
2023-03-27T05:39:14.170Z,21.50
2023-03-27T05:44:36.027Z,21.23
2023-03-27T05:49:58.056Z,19.08
2023-03-27T05:55:19.921Z,16.40
2023-03-27T06:00:42.656Z,15.82
2023-03-27T06:06:09.382Z,15.75
2023-03-27T06:11:31.232Z,15.13
2023-03-27T06:16:53.070Z,14.77
2023-03-27T06:22:14.906Z,13.35
2023-03-27T06:27:36.867Z,16.05
2023-03-27T06:32:59.882Z,11.80
2023-03-27T06:38:21.851Z,15.80
2023-03-27T06:43:43.970Z,15.43
2023-03-27T06:49:05.847Z,13.70
2023-03-27T06:54:27.696Z,13.73
2023-03-27T06:59:50.114Z,12.07
2023-03-27T07:05:12.750Z,12.43
2023-03-27T07:10:35.042Z,16.13
2023-03-27T07:15:56.927Z,11.98
2023-03-27T07:21:18.787Z,13.55
2023-03-27T07:26:40.667Z,14.20
2023-03-27T07:32:07.836Z,15.32
2023-03-27T07:37:30.926Z,10.50
2023-03-27T07:42:53.271Z,10.13
2023-03-27T07:48:15.129Z,11.23
2023-03-27T07:53:37.001Z,11.82
2023-03-27T07:58:59.117Z,8.43
2023-03-27T08:04:21.346Z,10.98
2023-03-27T08:09:43.312Z,8.80
2023-03-27T08:15:06.995Z,11.45
2023-03-27T08:20:28.872Z,8.80
2023-03-27T08:25:50.732Z,7.55
2023-03-27T08:31:15.304Z,7.30
2023-03-27T08:36:37.389Z,7.25
2023-03-27T08:42:02.886Z,8.38
2023-03-27T08:47:34.157Z,6.72
2023-03-27T08:52:56.067Z,9.45
2023-03-27T08:58:20.869Z,9.80
2023-03-27T09:03:51.055Z,9.95
2023-03-27T09:09:31.389Z,4.90
2023-03-27T09:15:05.165Z,7.60
2023-03-27T09:20:34.912Z,5.68
2023-03-27T09:26:01.870Z,6.10
2023-03-27T09:31:28.809Z,5.80
2023-03-27T09:36:51.082Z,6.20
2023-03-27T09:42:21.253Z,6.85
2023-03-27T09:47:48.278Z,7.15
2023-03-27T09:53:16.160Z,6.00
2023-03-27T09:58:42.028Z,7.03
2023-03-27T10:04:18.929Z,6.87
2023-03-27T10:09:40.849Z,8.00
2023-03-27T10:15:06.043Z,5.70
2023-03-27T10:20:28.237Z,4.25
2023-03-27T10:25:52.129Z,6.60
2023-03-27T10:31:36.491Z,7.38
2023-03-27T10:36:59.052Z,8.55
2023-03-27T10:42:21.171Z,7.18
2023-03-27T10:47:47.822Z,6.22
2023-03-27T10:58:54.731Z,8.10
2023-03-27T11:04:25.329Z,4.25
2023-03-27T11:10:14.221Z,6.07
2023-03-27T11:16:25.556Z,7.15
2023-03-27T11:21:53.355Z,5.45
2023-03-27T11:27:22.361Z,5.93
2023-03-27T11:33:04.521Z,5.10
2023-03-27T11:38:32.338Z,5.95
2023-03-27T11:43:54.225Z,4.25
2023-03-27T11:49:34.448Z,4.43
2023-03-27T11:55:04.824Z,4.45
2023-03-27T12:00:36.512Z,5.07
2023-03-27T12:06:26.775Z,4.13
2023-03-27T12:12:00.135Z,7.63
2023-03-27T12:17:57.185Z,4.32
2023-03-27T12:23:30.666Z,4.78
2023-03-27T12:29:24.407Z,4.38
2023-03-27T12:34:51.720Z,6.72
2023-03-27T12:40:40.777Z,4.38
2023-03-27T12:46:13.981Z,3.55
2023-03-27T12:51:54.266Z,3.30
2023-03-27T12:57:21.951Z,3.42
2023-03-27T13:03:13.268Z,3.60
2023-03-27T13:09:13.649Z,5.57
2023-03-27T13:14:45.968Z,2.13
2023-03-27T13:20:36.428Z,4.45
2023-03-27T13:26:18.522Z,2.42
2023-03-27T13:31:46.439Z,2.90
2023-03-27T13:37:11.304Z,4.40
2023-03-27T13:42:41.507Z,3.20
2023-03-27T13:48:28.259Z,2.53
2023-03-27T13:54:37.284Z,2.50
2023-03-27T14:00:19.715Z,4.22
2023-03-27T14:06:09.518Z,3.50
2023-03-27T14:12:00.344Z,3.80
2023-03-27T14:17:44.770Z,2.40
2023-03-27T14:23:19.538Z,10.70
2023-03-27T14:28:41.596Z,7.18
2023-03-27T14:34:13.651Z,3.45
2023-03-27T14:39:37.611Z,4.22
2023-03-27T14:45:19.969Z,2.70
2023-03-27T14:50:42.055Z,3.08
2023-03-27T14:56:08.339Z,3.25
2023-03-27T15:01:30.658Z,3.10
2023-03-27T15:06:52.719Z,3.97
2023-03-27T15:12:14.704Z,7.10
2023-03-27T15:17:36.697Z,3.28
2023-03-27T15:23:23.431Z,3.83
2023-03-27T15:29:09.262Z,3.08
2023-03-27T15:34:40.564Z,1.42
2023-03-27T15:40:03.973Z,4.40
2023-03-27T15:45:36.511Z,1.70
2023-03-27T15:51:11.543Z,3.38
2023-03-27T15:56:42.667Z,2.78
2023-03-27T16:02:13.808Z,2.60
2023-03-27T16:07:38.648Z,2.80
2023-03-27T16:13:02.101Z,3.00
2023-03-27T16:18:35.266Z,5.60
2023-03-27T16:23:57.156Z,4.32
2023-03-27T16:29:19.008Z,4.57
2023-03-27T16:34:40.859Z,3.15
2023-03-27T16:40:02.804Z,4.32
2023-03-27T16:45:25.690Z,5.43
2023-03-27T16:50:47.666Z,3.50
2023-03-27T16:56:10.205Z,3.45
2023-03-27T17:01:32.177Z,5.90
2023-03-27T17:06:54.992Z,6.43
2023-03-27T17:12:17.655Z,4.97
2023-03-27T17:17:39.897Z,2.85
2023-03-27T17:23:02.330Z,3.55
2023-03-27T17:28:24.292Z,3.10
2023-03-27T17:33:46.472Z,2.95
2023-03-27T17:39:08.290Z,3.50
2023-03-27T17:44:30.169Z,4.85
2023-03-27T17:49:52.048Z,3.90
2023-03-27T17:55:13.989Z,4.93
2023-03-27T18:00:37.014Z,6.55
2023-03-27T18:06:03.332Z,5.63
2023-03-27T18:11:25.223Z,4.85
2023-03-27T18:16:47.131Z,5.70
2023-03-27T18:22:09.031Z,4.45
2023-03-27T18:27:30.877Z,5.07
2023-03-27T18:32:52.975Z,5.18
2023-03-27T18:38:14.920Z,4.68
2023-03-27T18:43:37.115Z,4.38
2023-03-27T18:49:00.665Z,7.00
2023-03-27T18:54:25.502Z,9.20
2023-03-27T18:59:48.749Z,8.32
2023-03-27T19:05:11.373Z,7.25
2023-03-27T19:10:37.414Z,6.82
2023-03-27T19:16:00.092Z,6.30
2023-03-27T19:21:22.169Z,4.72
2023-03-27T19:26:44.910Z,6.45
2023-03-27T19:32:06.828Z,4.82
2023-03-27T19:37:28.848Z,4.32
2023-03-27T19:42:50.821Z,4.93
2023-03-27T19:48:12.883Z,6.80
2023-03-27T19:53:34.903Z,6.53
2023-03-27T19:58:56.909Z,6.07
2023-03-27T20:04:18.862Z,8.15
2023-03-27T20:09:40.736Z,9.20
2023-03-27T20:20:29.388Z,6.57
2023-03-27T20:25:51.312Z,8.63
2023-03-27T20:31:13.275Z,7.07
2023-03-27T20:36:35.914Z,8.55
2023-03-27T20:41:57.822Z,6.75
2023-03-27T20:47:19.955Z,7.03
2023-03-27T20:52:43.034Z,5.72
2023-03-27T20:58:04.987Z,7.18
2023-03-27T21:03:26.961Z,7.30
2023-03-27T21:08:48.976Z,6.40
2023-03-27T21:14:11.040Z,8.00
2023-03-27T21:19:32.978Z,4.40
2023-03-27T21:24:54.987Z,5.82
2023-03-27T21:30:17.264Z,5.40
2023-03-27T21:35:41.380Z,6.75
2023-03-27T21:41:04.532Z,7.32
2023-03-27T21:46:26.484Z,5.68
2023-03-27T21:51:48.382Z,8.98
2023-03-27T21:57:10.321Z,31.25
2023-03-27T22:02:32.280Z,6.15
2023-03-27T22:07:54.288Z,5.25
2023-03-27T22:13:16.200Z,6.43
2023-03-27T22:18:38.364Z,6.55
2023-03-27T22:24:00.273Z,7.97
2023-03-27T22:29:22.260Z,10.23
2023-03-27T22:34:44.122Z,7.03
2023-03-27T22:40:07.636Z,10.20
2023-03-27T22:45:29.980Z,9.52
2023-03-27T22:50:56.802Z,10.45
2023-03-27T22:56:18.724Z,9.05
2023-03-27T23:01:40.792Z,8.10
2023-03-27T23:07:02.883Z,11.43
2023-03-27T23:12:24.919Z,9.52
2023-03-27T23:17:46.948Z,6.82
2023-03-27T23:23:08.862Z,6.75
2023-03-27T23:28:33.659Z,6.80
2023-03-27T23:33:55.653Z,8.98
2023-03-27T23:39:17.499Z,9.77
2023-03-27T23:44:39.618Z,10.15
2023-03-27T23:50:01.455Z,8.55
2023-03-27T23:55:23.308Z,8.63
